sensor_id;sensor_type;location;lat;lon;timestamp;temperature;humidity
1021;DHT22;499;42.648;23.270;2022-12-11T00:00:44;10.10;99.90
1021;DHT22;499;42.648;23.270;2022-12-11T00:03:11;10.00;99.90
1021;DHT22;499;42.648;23.270;2022-12-11T00:05:40;10.00;99.90
1021;DHT22;499;42.648;23.270;2022-12-11T00:08:07;10.10;99.90
1021;DHT22;499;42.648;23.270;2022-12-11T00:10:34;10.20;99.90
1021;DHT22;499;42.648;23.270;2022-12-11T00:13:02;10.10;99.90
1021;DHT22;499;42.648;23.270;2022-12-11T00:15:29;10.10;99.90
1021;DHT22;499;42.648;23.270;2022-12-11T00:17:56;10.10;99.90
1021;DHT22;499;42.648;23.270;2022-12-11T00:20:23;9.90;99.90
1021;DHT22;499;42.648;23.270;2022-12-11T00:22:51;9.90;99.90
1021;DHT22;499;42.648;23.270;2022-12-11T00:25:18;9.90;99.90
1021;DHT22;499;42.648;23.270;2022-12-11T00:27:46;9.80;99.90
1021;DHT22;499;42.648;23.270;2022-12-11T00:30:13;9.80;99.90
1021;DHT22;499;42.648;23.270;2022-12-11T00:32:40;9.60;99.90
1021;DHT22;499;42.648;23.270;2022-12-11T00:35:08;9.70;99.90
1021;DHT22;499;42.648;23.270;2022-12-11T00:37:36;9.70;99.90
1021;DHT22;499;42.648;23.270;2022-12-11T00:40:06;9.80;99.90
1021;DHT22;499;42.648;23.270;2022-12-11T00:42:33;9.80;99.90
1021;DHT22;499;42.648;23.270;2022-12-11T00:45:00;9.80;99.90
1021;DHT22;499;42.648;23.270;2022-12-11T00:47:27;9.80;99.90
1021;DHT22;499;42.648;23.270;2022-12-11T00:49:54;9.80;99.90
1021;DHT22;499;42.648;23.270;2022-12-11T00:52:21;9.70;99.90
1021;DHT22;499;42.648;23.270;2022-12-11T00:54:49;9.70;99.90
1021;DHT22;499;42.648;23.270;2022-12-11T00:57:17;9.70;99.90
1021;DHT22;499;42.648;23.270;2022-12-11T00:59:44;9.70;99.90
1021;DHT22;499;42.648;23.270;2022-12-11T01:02:12;9.70;99.90
1021;DHT22;499;42.648;23.270;2022-12-11T01:04:39;9.70;99.90
1021;DHT22;499;42.648;23.270;2022-12-11T01:07:06;9.70;99.90
1021;DHT22;499;42.648;23.270;2022-12-11T01:09:33;9.70;99.90
1021;DHT22;499;42.648;23.270;2022-12-11T01:12:19;9.70;99.90
1021;DHT22;499;42.648;23.270;2022-12-11T01:14:46;9.70;99.90
1021;DHT22;499;42.648;23.270;2022-12-11T01:17:13;9.70;99.90
1021;DHT22;499;42.648;23.270;2022-12-11T01:19:40;9.70;99.90
1021;DHT22;499;42.648;23.270;2022-12-11T01:22:07;9.70;99.90
1021;DHT22;499;42.648;23.270;2022-12-11T01:24:34;9.80;99.90
1021;DHT22;499;42.648;23.270;2022-12-11T01:27:01;9.80;99.90
1021;DHT22;499;42.648;23.270;2022-12-11T01:29:29;9.60;99.90
1021;DHT22;499;42.648;23.270;2022-12-11T01:31:57;9.60;99.90
1021;DHT22;499;42.648;23.270;2022-12-11T01:34:24;9.90;99.90
1021;DHT22;499;42.648;23.270;2022-12-11T01:36:51;10.30;99.90
1021;DHT22;499;42.648;23.270;2022-12-11T01:39:18;10.50;99.90
1021;DHT22;499;42.648;23.270;2022-12-11T01:41:45;10.80;99.90
1021;DHT22;499;42.648;23.270;2022-12-11T01:47:14;11.30;99.90
1021;DHT22;499;42.648;23.270;2022-12-11T01:49:42;11.40;99.90
1021;DHT22;499;42.648;23.270;2022-12-11T01:52:11;11.50;99.90
1021;DHT22;499;42.648;23.270;2022-12-11T01:54:41;11.70;99.90
1021;DHT22;499;42.648;23.270;2022-12-11T01:57:10;12.00;99.10
1021;DHT22;499;42.648;23.270;2022-12-11T01:59:42;12.10;97.20
1021;DHT22;499;42.648;23.270;2022-12-11T02:02:16;12.30;95.40
1021;DHT22;499;42.648;23.270;2022-12-11T02:04:45;12.60;72.50
1021;DHT22;499;42.648;23.270;2022-12-11T02:07:13;12.60;73.80
1021;DHT22;499;42.648;23.270;2022-12-11T02:09:42;12.70;78.10
1021;DHT22;499;42.648;23.270;2022-12-11T02:12:15;12.40;82.80
1021;DHT22;499;42.648;23.270;2022-12-11T02:14:51;12.40;84.90
1021;DHT22;499;42.648;23.270;2022-12-11T02:17:27;12.50;85.60
1021;DHT22;499;42.648;23.270;2022-12-11T02:20:01;12.40;89.30
1021;DHT22;499;42.648;23.270;2022-12-11T02:22:46;12.30;94.00
1021;DHT22;499;42.648;23.270;2022-12-11T02:25:23;12.40;94.40
1021;DHT22;499;42.648;23.270;2022-12-11T02:30:26;12.60;91.80
1021;DHT22;499;42.648;23.270;2022-12-11T02:32:55;12.90;92.00
1021;DHT22;499;42.648;23.270;2022-12-11T02:35:27;13.00;94.00
1021;DHT22;499;42.648;23.270;2022-12-11T02:37:59;13.10;94.60
1021;DHT22;499;42.648;23.270;2022-12-11T02:40:30;13.10;92.90
1021;DHT22;499;42.648;23.270;2022-12-11T02:43:02;13.20;94.10
1021;DHT22;499;42.648;23.270;2022-12-11T02:45:32;13.30;90.30
1021;DHT22;499;42.648;23.270;2022-12-11T02:48:02;13.30;90.70
1021;DHT22;499;42.648;23.270;2022-12-11T02:50:33;13.20;86.00
1021;DHT22;499;42.648;23.270;2022-12-11T02:53:02;13.30;76.30
1021;DHT22;499;42.648;23.270;2022-12-11T02:55:31;13.30;76.10
1021;DHT22;499;42.648;23.270;2022-12-11T02:58:03;13.40;71.60
1021;DHT22;499;42.648;23.270;2022-12-11T03:00:32;13.40;72.10
1021;DHT22;499;42.648;23.270;2022-12-11T03:03:00;13.40;75.10
1021;DHT22;499;42.648;23.270;2022-12-11T03:05:29;13.50;63.90
1021;DHT22;499;42.648;23.270;2022-12-11T03:07:56;13.50;69.90
1021;DHT22;499;42.648;23.270;2022-12-11T03:10:23;13.50;71.70
1021;DHT22;499;42.648;23.270;2022-12-11T03:12:53;13.50;74.30
1021;DHT22;499;42.648;23.270;2022-12-11T03:15:26;13.50;76.40
1021;DHT22;499;42.648;23.270;2022-12-11T03:18:03;13.50;76.50
1021;DHT22;499;42.648;23.270;2022-12-11T03:20:36;13.50;73.40
1021;DHT22;499;42.648;23.270;2022-12-11T03:23:11;13.60;76.60
1021;DHT22;499;42.648;23.270;2022-12-11T03:25:46;13.70;71.90
1021;DHT22;499;42.648;23.270;2022-12-11T03:28:20;13.70;67.00
1021;DHT22;499;42.648;23.270;2022-12-11T03:30:51;13.80;68.80
1021;DHT22;499;42.648;23.270;2022-12-11T03:33:23;13.80;66.60
1021;DHT22;499;42.648;23.270;2022-12-11T03:35:54;13.70;69.30
1021;DHT22;499;42.648;23.270;2022-12-11T03:38:26;13.80;68.50
1021;DHT22;499;42.648;23.270;2022-12-11T03:40:56;13.70;72.90
1021;DHT22;499;42.648;23.270;2022-12-11T03:43:25;13.70;71.40
1021;DHT22;499;42.648;23.270;2022-12-11T03:45:54;13.70;67.00
1021;DHT22;499;42.648;23.270;2022-12-11T03:48:27;13.80;65.40
1021;DHT22;499;42.648;23.270;2022-12-11T03:50:54;13.80;57.80
1021;DHT22;499;42.648;23.270;2022-12-11T03:53:22;13.80;62.20
1021;DHT22;499;42.648;23.270;2022-12-11T03:55:52;13.80;57.10
1021;DHT22;499;42.648;23.270;2022-12-11T03:58:20;13.70;56.90
1021;DHT22;499;42.648;23.270;2022-12-11T04:00:47;13.80;54.80
1021;DHT22;499;42.648;23.270;2022-12-11T04:03:14;13.80;53.50
1021;DHT22;499;42.648;23.270;2022-12-11T04:05:45;13.80;52.40
1021;DHT22;499;42.648;23.270;2022-12-11T04:08:13;13.80;59.90
1021;DHT22;499;42.648;23.270;2022-12-11T04:10:40;13.80;62.20
1021;DHT22;499;42.648;23.270;2022-12-11T04:13:08;13.80;62.00
1021;DHT22;499;42.648;23.270;2022-12-11T04:15:36;13.80;57.60
1021;DHT22;499;42.648;23.270;2022-12-11T04:18:03;13.80;55.30
1021;DHT22;499;42.648;23.270;2022-12-11T04:20:52;13.80;50.10
1021;DHT22;499;42.648;23.270;2022-12-11T04:23:37;13.80;46.10
1021;DHT22;499;42.648;23.270;2022-12-11T04:26:21;13.90;47.90
1021;DHT22;499;42.648;23.270;2022-12-11T04:28:49;13.90;50.50
1021;DHT22;499;42.648;23.270;2022-12-11T04:31:18;13.80;48.90
1021;DHT22;499;42.648;23.270;2022-12-11T04:33:45;13.80;49.00
1021;DHT22;499;42.648;23.270;2022-12-11T04:36:14;13.90;46.60
1021;DHT22;499;42.648;23.270;2022-12-11T04:38:41;13.80;44.80
1021;DHT22;499;42.648;23.270;2022-12-11T04:41:10;13.90;44.00
1021;DHT22;499;42.648;23.270;2022-12-11T04:43:38;13.80;42.00
1021;DHT22;499;42.648;23.270;2022-12-11T04:46:07;13.90;40.00
1021;DHT22;499;42.648;23.270;2022-12-11T04:48:35;13.90;38.10
1021;DHT22;499;42.648;23.270;2022-12-11T04:51:02;13.90;36.90
1021;DHT22;499;42.648;23.270;2022-12-11T04:53:31;13.90;37.00
1021;DHT22;499;42.648;23.270;2022-12-11T04:55:58;13.80;38.10
1021;DHT22;499;42.648;23.270;2022-12-11T04:58:26;13.90;35.30
1021;DHT22;499;42.648;23.270;2022-12-11T05:00:53;13.80;36.60
1021;DHT22;499;42.648;23.270;2022-12-11T05:03:20;13.80;36.50
1021;DHT22;499;42.648;23.270;2022-12-11T05:05:49;13.90;35.60
1021;DHT22;499;42.648;23.270;2022-12-11T05:08:16;13.90;34.40
1021;DHT22;499;42.648;23.270;2022-12-11T05:10:53;14.00;34.70
1021;DHT22;499;42.648;23.270;2022-12-11T05:13:20;13.90;34.40
1021;DHT22;499;42.648;23.270;2022-12-11T05:15:47;13.90;33.50
1021;DHT22;499;42.648;23.270;2022-12-11T05:18:14;13.80;36.70
1021;DHT22;499;42.648;23.270;2022-12-11T05:20:41;13.70;37.40
1021;DHT22;499;42.648;23.270;2022-12-11T05:23:08;13.80;36.00
1021;DHT22;499;42.648;23.270;2022-12-11T05:25:36;13.90;35.50
1021;DHT22;499;42.648;23.270;2022-12-11T05:28:04;13.90;36.50
1021;DHT22;499;42.648;23.270;2022-12-11T05:30:31;13.70;38.90
1021;DHT22;499;42.648;23.270;2022-12-11T05:32:58;13.80;37.00
1021;DHT22;499;42.648;23.270;2022-12-11T05:35:25;13.80;38.40
1021;DHT22;499;42.648;23.270;2022-12-11T05:37:52;13.90;38.80
1021;DHT22;499;42.648;23.270;2022-12-11T05:40:19;13.90;39.20
1021;DHT22;499;42.648;23.270;2022-12-11T05:42:46;13.90;38.80
1021;DHT22;499;42.648;23.270;2022-12-11T05:45:15;13.90;38.80
1021;DHT22;499;42.648;23.270;2022-12-11T05:47:42;14.00;38.80
1021;DHT22;499;42.648;23.270;2022-12-11T05:50:09;14.00;38.00
1021;DHT22;499;42.648;23.270;2022-12-11T05:52:36;13.90;39.20
1021;DHT22;499;42.648;23.270;2022-12-11T05:55:04;13.70;41.20
1021;DHT22;499;42.648;23.270;2022-12-11T05:57:31;13.90;39.80
1021;DHT22;499;42.648;23.270;2022-12-11T05:59:58;13.90;39.20
1021;DHT22;499;42.648;23.270;2022-12-11T06:02:26;13.90;37.80
1021;DHT22;499;42.648;23.270;2022-12-11T06:04:53;13.70;39.00
1021;DHT22;499;42.648;23.270;2022-12-11T06:07:20;13.70;39.00
1021;DHT22;499;42.648;23.270;2022-12-11T06:09:47;13.70;39.00
1021;DHT22;499;42.648;23.270;2022-12-11T06:12:14;13.80;35.30
1021;DHT22;499;42.648;23.270;2022-12-11T06:14:42;14.00;36.20
1021;DHT22;499;42.648;23.270;2022-12-11T06:17:09;14.00;32.40
1021;DHT22;499;42.648;23.270;2022-12-11T06:19:38;14.10;33.40
1021;DHT22;499;42.648;23.270;2022-12-11T06:22:05;14.10;33.40
1021;DHT22;499;42.648;23.270;2022-12-11T06:24:33;13.90;35.60
1021;DHT22;499;42.648;23.270;2022-12-11T06:27:00;14.10;31.40
1021;DHT22;499;42.648;23.270;2022-12-11T06:29:27;14.30;30.00
1021;DHT22;499;42.648;23.270;2022-12-11T06:31:54;14.20;31.30
1021;DHT22;499;42.648;23.270;2022-12-11T06:34:21;14.20;32.10
1021;DHT22;499;42.648;23.270;2022-12-11T06:36:49;14.20;34.70
1021;DHT22;499;42.648;23.270;2022-12-11T06:39:16;14.10;36.40
1021;DHT22;499;42.648;23.270;2022-12-11T06:41:43;14.20;35.90
1021;DHT22;499;42.648;23.270;2022-12-11T06:44:10;14.20;32.10
1021;DHT22;499;42.648;23.270;2022-12-11T06:46:37;14.10;33.50
1021;DHT22;499;42.648;23.270;2022-12-11T06:49:04;14.10;34.50
1021;DHT22;499;42.648;23.270;2022-12-11T06:51:31;14.10;33.00
1021;DHT22;499;42.648;23.270;2022-12-11T06:54:00;14.20;34.00
1021;DHT22;499;42.648;23.270;2022-12-11T06:56:27;14.10;32.70
1021;DHT22;499;42.648;23.270;2022-12-11T06:58:54;14.10;33.20
1021;DHT22;499;42.648;23.270;2022-12-11T07:01:23;14.10;34.50
1021;DHT22;499;42.648;23.270;2022-12-11T07:03:51;14.20;33.00
1021;DHT22;499;42.648;23.270;2022-12-11T07:06:18;14.20;32.50
1021;DHT22;499;42.648;23.270;2022-12-11T07:08:45;14.30;31.60
1021;DHT22;499;42.648;23.270;2022-12-11T07:11:15;14.30;33.30
1021;DHT22;499;42.648;23.270;2022-12-11T07:13:42;14.30;33.70
1021;DHT22;499;42.648;23.270;2022-12-11T07:16:11;14.30;31.60
1021;DHT22;499;42.648;23.270;2022-12-11T07:18:39;14.30;33.30
1021;DHT22;499;42.648;23.270;2022-12-11T07:21:07;14.30;32.80
1021;DHT22;499;42.648;23.270;2022-12-11T07:23:35;14.30;33.20
1021;DHT22;499;42.648;23.270;2022-12-11T07:26:04;14.30;33.20
1021;DHT22;499;42.648;23.270;2022-12-11T07:28:33;14.40;32.70
1021;DHT22;499;42.648;23.270;2022-12-11T07:31:04;14.40;31.40
1021;DHT22;499;42.648;23.270;2022-12-11T07:33:31;14.30;31.90
1021;DHT22;499;42.648;23.270;2022-12-11T07:36:00;14.50;30.60
1021;DHT22;499;42.648;23.270;2022-12-11T07:38:28;14.70;29.50
1021;DHT22;499;42.648;23.270;2022-12-11T07:40:55;14.80;29.50
1021;DHT22;499;42.648;23.270;2022-12-11T07:43:22;14.80;28.80
1021;DHT22;499;42.648;23.270;2022-12-11T07:45:50;14.90;29.00
1021;DHT22;499;42.648;23.270;2022-12-11T07:48:18;15.00;28.40
1021;DHT22;499;42.648;23.270;2022-12-11T07:50:45;15.00;28.30
1021;DHT22;499;42.648;23.270;2022-12-11T07:53:12;15.00;28.30
1021;DHT22;499;42.648;23.270;2022-12-11T07:55:39;15.00;29.20
1021;DHT22;499;42.648;23.270;2022-12-11T07:58:06;14.90;30.40
1021;DHT22;499;42.648;23.270;2022-12-11T08:00:33;14.80;30.30
1021;DHT22;499;42.648;23.270;2022-12-11T08:03:02;15.00;28.50
1021;DHT22;499;42.648;23.270;2022-12-11T08:05:29;15.10;28.10
1021;DHT22;499;42.648;23.270;2022-12-11T08:07:56;15.10;28.40
1021;DHT22;499;42.648;23.270;2022-12-11T08:10:23;15.20;29.70
1021;DHT22;499;42.648;23.270;2022-12-11T08:12:50;15.10;29.00
1021;DHT22;499;42.648;23.270;2022-12-11T08:15:17;15.00;29.00
1021;DHT22;499;42.648;23.270;2022-12-11T08:17:44;15.10;29.00
1021;DHT22;499;42.648;23.270;2022-12-11T08:20:13;15.00;29.60
1021;DHT22;499;42.648;23.270;2022-12-11T08:22:40;14.70;31.50
1021;DHT22;499;42.648;23.270;2022-12-11T08:25:07;15.00;31.80
1021;DHT22;499;42.648;23.270;2022-12-11T08:27:34;15.10;30.60
1021;DHT22;499;42.648;23.270;2022-12-11T08:30:01;15.10;30.40
1021;DHT22;499;42.648;23.270;2022-12-11T08:32:28;15.10;30.10
1021;DHT22;499;42.648;23.270;2022-12-11T08:34:55;15.00;30.90
1021;DHT22;499;42.648;23.270;2022-12-11T08:37:24;15.00;33.60
1021;DHT22;499;42.648;23.270;2022-12-11T08:39:51;14.90;38.40
1021;DHT22;499;42.648;23.270;2022-12-11T08:42:18;14.90;37.90
1021;DHT22;499;42.648;23.270;2022-12-11T08:44:45;15.00;43.70
1021;DHT22;499;42.648;23.270;2022-12-11T08:47:12;15.00;38.70
1021;DHT22;499;42.648;23.270;2022-12-11T08:49:40;15.00;38.60
1021;DHT22;499;42.648;23.270;2022-12-11T08:52:07;15.00;44.80
1021;DHT22;499;42.648;23.270;2022-12-11T08:54:35;14.90;42.00
1021;DHT22;499;42.648;23.270;2022-12-11T08:57:02;15.00;46.00
1021;DHT22;499;42.648;23.270;2022-12-11T08:59:29;15.00;51.60
1021;DHT22;499;42.648;23.270;2022-12-11T09:01:57;15.00;58.70
1021;DHT22;499;42.648;23.270;2022-12-11T09:04:24;15.20;61.80
1021;DHT22;499;42.648;23.270;2022-12-11T09:06:51;15.20;55.50
1021;DHT22;499;42.648;23.270;2022-12-11T09:09:18;15.20;61.80
1021;DHT22;499;42.648;23.270;2022-12-11T09:11:46;15.20;54.00
1021;DHT22;499;42.648;23.270;2022-12-11T09:14:14;15.20;60.80
1021;DHT22;499;42.648;23.270;2022-12-11T09:16:41;15.20;63.60
1021;DHT22;499;42.648;23.270;2022-12-11T09:19:11;15.50;59.50
1021;DHT22;499;42.648;23.270;2022-12-11T09:21:40;14.80;44.60
1021;DHT22;499;42.648;23.270;2022-12-11T09:24:09;14.90;42.20
1021;DHT22;499;42.648;23.270;2022-12-11T09:26:37;14.90;46.10
1021;DHT22;499;42.648;23.270;2022-12-11T09:29:06;15.00;55.60
1021;DHT22;499;42.648;23.270;2022-12-11T09:31:34;15.20;49.90
1021;DHT22;499;42.648;23.270;2022-12-11T09:34:04;15.10;36.20
1021;DHT22;499;42.648;23.270;2022-12-11T09:36:31;15.20;38.30
1021;DHT22;499;42.648;23.270;2022-12-11T09:38:59;15.30;36.60
1021;DHT22;499;42.648;23.270;2022-12-11T09:41:38;15.20;34.30
1021;DHT22;499;42.648;23.270;2022-12-11T09:44:15;15.30;36.20
1021;DHT22;499;42.648;23.270;2022-12-11T09:46:44;15.40;36.90
1021;DHT22;499;42.648;23.270;2022-12-11T09:49:23;15.40;33.70
1021;DHT22;499;42.648;23.270;2022-12-11T09:51:59;15.50;30.90
1021;DHT22;499;42.648;23.270;2022-12-11T09:54:30;15.50;33.30
1021;DHT22;499;42.648;23.270;2022-12-11T09:57:05;15.50;32.30
1021;DHT22;499;42.648;23.270;2022-12-11T09:59:46;15.50;31.80
1021;DHT22;499;42.648;23.270;2022-12-11T10:02:24;15.30;32.70
1021;DHT22;499;42.648;23.270;2022-12-11T10:05:01;15.40;34.10
1021;DHT22;499;42.648;23.270;2022-12-11T10:07:35;15.50;33.00
1021;DHT22;499;42.648;23.270;2022-12-11T10:10:11;15.60;34.20
1021;DHT22;499;42.648;23.270;2022-12-11T10:12:46;15.80;35.30
1021;DHT22;499;42.648;23.270;2022-12-11T10:15:28;15.40;35.60
1021;DHT22;499;42.648;23.270;2022-12-11T10:18:02;15.50;38.30
1021;DHT22;499;42.648;23.270;2022-12-11T10:20:33;15.70;35.90
1021;DHT22;499;42.648;23.270;2022-12-11T10:23:06;15.70;34.50
1021;DHT22;499;42.648;23.270;2022-12-11T10:25:36;15.50;39.50
1021;DHT22;499;42.648;23.270;2022-12-11T10:28:10;15.50;38.20
1021;DHT22;499;42.648;23.270;2022-12-11T10:30:46;15.30;42.90
1021;DHT22;499;42.648;23.270;2022-12-11T10:33:19;15.00;54.00
1021;DHT22;499;42.648;23.270;2022-12-11T10:35:50;14.60;68.70
1021;DHT22;499;42.648;23.270;2022-12-11T10:38:23;14.80;66.50
1021;DHT22;499;42.648;23.270;2022-12-11T10:40:54;15.00;66.80
1021;DHT22;499;42.648;23.270;2022-12-11T10:43:32;14.90;58.50
1021;DHT22;499;42.648;23.270;2022-12-11T10:46:00;14.80;66.60
1021;DHT22;499;42.648;23.270;2022-12-11T10:48:28;14.70;64.10
1021;DHT22;499;42.648;23.270;2022-12-11T10:50:58;14.80;72.90
1021;DHT22;499;42.648;23.270;2022-12-11T10:53:26;14.80;58.90
1021;DHT22;499;42.648;23.270;2022-12-11T10:55:54;14.70;44.50
1021;DHT22;499;42.648;23.270;2022-12-11T10:58:25;14.80;44.70
1021;DHT22;499;42.648;23.270;2022-12-11T11:01:06;14.80;48.80
1021;DHT22;499;42.648;23.270;2022-12-11T11:03:37;14.80;50.20
1021;DHT22;499;42.648;23.270;2022-12-11T11:06:15;15.00;55.50
1021;DHT22;499;42.648;23.270;2022-12-11T11:08:44;15.20;43.50
1021;DHT22;499;42.648;23.270;2022-12-11T11:11:29;15.30;45.10
1021;DHT22;499;42.648;23.270;2022-12-11T11:14:06;15.10;45.90
1021;DHT22;499;42.648;23.270;2022-12-11T11:16:36;15.10;50.60
1021;DHT22;499;42.648;23.270;2022-12-11T11:19:04;15.10;47.00
1021;DHT22;499;42.648;23.270;2022-12-11T11:21:33;15.00;52.00
1021;DHT22;499;42.648;23.270;2022-12-11T11:24:01;15.10;51.60
1021;DHT22;499;42.648;23.270;2022-12-11T11:26:31;15.00;50.70
1021;DHT22;499;42.648;23.270;2022-12-11T11:28:59;15.10;47.80
1021;DHT22;499;42.648;23.270;2022-12-11T11:31:31;15.30;50.10
1021;DHT22;499;42.648;23.270;2022-12-11T11:34:04;15.40;57.70
1021;DHT22;499;42.648;23.270;2022-12-11T11:36:35;15.30;39.70
1021;DHT22;499;42.648;23.270;2022-12-11T11:39:11;15.50;48.50
1021;DHT22;499;42.648;23.270;2022-12-11T11:41:45;15.50;54.50
1021;DHT22;499;42.648;23.270;2022-12-11T11:44:17;15.50;52.50
1021;DHT22;499;42.648;23.270;2022-12-11T11:46:51;15.50;34.30
1021;DHT22;499;42.648;23.270;2022-12-11T11:49:27;15.50;40.10
1021;DHT22;499;42.648;23.270;2022-12-11T11:52:07;15.30;38.70
1021;DHT22;499;42.648;23.270;2022-12-11T11:54:41;15.20;43.70
1021;DHT22;499;42.648;23.270;2022-12-11T11:57:14;14.90;48.70
1021;DHT22;499;42.648;23.270;2022-12-11T11:59:46;14.70;48.10
1021;DHT22;499;42.648;23.270;2022-12-11T12:02:17;14.50;54.10
1021;DHT22;499;42.648;23.270;2022-12-11T12:04:46;14.60;66.60
1021;DHT22;499;42.648;23.270;2022-12-11T12:07:27;14.70;72.90
1021;DHT22;499;42.648;23.270;2022-12-11T12:10:05;15.00;75.30
1021;DHT22;499;42.648;23.270;2022-12-11T12:12:40;14.70;44.60
1021;DHT22;499;42.648;23.270;2022-12-11T12:15:18;14.60;56.50
1021;DHT22;499;42.648;23.270;2022-12-11T12:17:53;14.40;74.60
1021;DHT22;499;42.648;23.270;2022-12-11T12:20:32;14.40;76.20
1021;DHT22;499;42.648;23.270;2022-12-11T12:23:23;14.10;79.00
1021;DHT22;499;42.648;23.270;2022-12-11T12:25:56;14.00;74.70
1021;DHT22;499;42.648;23.270;2022-12-11T12:28:32;13.90;76.80
1021;DHT22;499;42.648;23.270;2022-12-11T12:31:11;13.90;91.40
1021;DHT22;499;42.648;23.270;2022-12-11T12:33:47;13.50;84.30
1021;DHT22;499;42.648;23.270;2022-12-11T12:36:24;13.50;94.80
1021;DHT22;499;42.648;23.270;2022-12-11T12:38:56;13.40;96.30
1021;DHT22;499;42.648;23.270;2022-12-11T12:41:34;13.20;99.00
1021;DHT22;499;42.648;23.270;2022-12-11T12:44:12;13.20;99.90
1021;DHT22;499;42.648;23.270;2022-12-11T12:47:00;13.00;99.90
1021;DHT22;499;42.648;23.270;2022-12-11T12:49:36;12.00;96.50
1021;DHT22;499;42.648;23.270;2022-12-11T12:52:11;11.00;97.10
1021;DHT22;499;42.648;23.270;2022-12-11T12:54:40;10.60;97.90
1021;DHT22;499;42.648;23.270;2022-12-11T12:57:08;10.30;99.90
1021;DHT22;499;42.648;23.270;2022-12-11T12:59:35;10.30;99.90
1021;DHT22;499;42.648;23.270;2022-12-11T13:02:03;10.00;99.90
1021;DHT22;499;42.648;23.270;2022-12-11T13:04:39;9.50;99.90
1021;DHT22;499;42.648;23.270;2022-12-11T13:07:13;9.00;99.90
1021;DHT22;499;42.648;23.270;2022-12-11T13:09:42;9.00;99.90
1021;DHT22;499;42.648;23.270;2022-12-11T13:12:14;8.80;99.90
1021;DHT22;499;42.648;23.270;2022-12-11T13:14:41;8.40;99.90
1021;DHT22;499;42.648;23.270;2022-12-11T13:17:33;8.20;99.90
1021;DHT22;499;42.648;23.270;2022-12-11T13:20:15;7.90;99.90
1021;DHT22;499;42.648;23.270;2022-12-11T13:22:51;7.60;99.90
1021;DHT22;499;42.648;23.270;2022-12-11T13:25:23;7.40;99.90
1021;DHT22;499;42.648;23.270;2022-12-11T13:27:50;7.40;99.90
1021;DHT22;499;42.648;23.270;2022-12-11T13:30:23;7.20;99.90
1021;DHT22;499;42.648;23.270;2022-12-11T13:33:00;7.10;99.90
1021;DHT22;499;42.648;23.270;2022-12-11T13:35:29;7.00;99.90
1021;DHT22;499;42.648;23.270;2022-12-11T13:38:02;6.80;99.90
1021;DHT22;499;42.648;23.270;2022-12-11T13:40:36;6.60;99.90
1021;DHT22;499;42.648;23.270;2022-12-11T13:43:07;6.50;99.90
1021;DHT22;499;42.648;23.270;2022-12-11T13:45:39;6.40;99.90
1021;DHT22;499;42.648;23.270;2022-12-11T13:48:18;6.50;99.90
1021;DHT22;499;42.648;23.270;2022-12-11T13:50:46;6.30;99.90
1021;DHT22;499;42.648;23.270;2022-12-11T13:53:16;6.20;99.90
1021;DHT22;499;42.648;23.270;2022-12-11T13:55:44;6.10;99.90
1021;DHT22;499;42.648;23.270;2022-12-11T13:58:18;6.00;99.90
1021;DHT22;499;42.648;23.270;2022-12-11T14:00:56;5.70;99.90
1021;DHT22;499;42.648;23.270;2022-12-11T14:03:25;5.80;99.90
1021;DHT22;499;42.648;23.270;2022-12-11T14:05:53;5.60;99.90
1021;DHT22;499;42.648;23.270;2022-12-11T14:08:23;5.50;99.90
1021;DHT22;499;42.648;23.270;2022-12-11T14:10:53;5.40;99.90
1021;DHT22;499;42.648;23.270;2022-12-11T14:13:22;5.40;99.90
1021;DHT22;499;42.648;23.270;2022-12-11T14:15:50;5.50;99.90
1021;DHT22;499;42.648;23.270;2022-12-11T14:18:22;5.30;99.90
1021;DHT22;499;42.648;23.270;2022-12-11T14:20:54;5.30;99.90
1021;DHT22;499;42.648;23.270;2022-12-11T14:23:25;5.30;99.90
1021;DHT22;499;42.648;23.270;2022-12-11T14:25:54;5.20;99.90
1021;DHT22;499;42.648;23.270;2022-12-11T14:28:23;5.00;99.90
1021;DHT22;499;42.648;23.270;2022-12-11T14:30:55;5.00;99.90
1021;DHT22;499;42.648;23.270;2022-12-11T14:33:26;4.90;99.90
1021;DHT22;499;42.648;23.270;2022-12-11T14:35:54;5.10;99.90
1021;DHT22;499;42.648;23.270;2022-12-11T14:38:26;5.00;99.90
1021;DHT22;499;42.648;23.270;2022-12-11T14:40:59;5.10;99.90
1021;DHT22;499;42.648;23.270;2022-12-11T14:43:33;5.00;99.90
1021;DHT22;499;42.648;23.270;2022-12-11T14:46:03;5.00;99.90
1021;DHT22;499;42.648;23.270;2022-12-11T14:48:34;5.00;99.90
1021;DHT22;499;42.648;23.270;2022-12-11T14:51:04;4.90;99.90
1021;DHT22;499;42.648;23.270;2022-12-11T14:53:37;4.90;99.90
1021;DHT22;499;42.648;23.270;2022-12-11T14:56:12;4.80;99.90
1021;DHT22;499;42.648;23.270;2022-12-11T14:58:42;4.60;99.90
1021;DHT22;499;42.648;23.270;2022-12-11T15:01:21;4.60;99.90
1021;DHT22;499;42.648;23.270;2022-12-11T15:03:49;4.60;99.90
1021;DHT22;499;42.648;23.270;2022-12-11T15:06:23;4.60;99.90
1021;DHT22;499;42.648;23.270;2022-12-11T15:08:53;4.60;99.90
1021;DHT22;499;42.648;23.270;2022-12-11T15:11:21;4.70;99.90
1021;DHT22;499;42.648;23.270;2022-12-11T15:13:51;4.60;99.90
1021;DHT22;499;42.648;23.270;2022-12-11T15:16:19;4.50;99.90
1021;DHT22;499;42.648;23.270;2022-12-11T15:18:49;4.50;99.90
1021;DHT22;499;42.648;23.270;2022-12-11T15:21:17;4.40;99.90
1021;DHT22;499;42.648;23.270;2022-12-11T15:23:50;4.40;99.90
1021;DHT22;499;42.648;23.270;2022-12-11T15:26:20;4.40;99.90
1021;DHT22;499;42.648;23.270;2022-12-11T15:28:58;4.50;99.90
1021;DHT22;499;42.648;23.270;2022-12-11T15:31:27;4.50;99.90
1021;DHT22;499;42.648;23.270;2022-12-11T15:33:55;4.60;99.90
1021;DHT22;499;42.648;23.270;2022-12-11T15:36:24;4.70;99.90
1021;DHT22;499;42.648;23.270;2022-12-11T15:38:52;4.70;99.90
1021;DHT22;499;42.648;23.270;2022-12-11T15:41:20;4.50;99.90
1021;DHT22;499;42.648;23.270;2022-12-11T15:43:49;4.50;99.90
1021;DHT22;499;42.648;23.270;2022-12-11T15:46:17;4.50;99.90
1021;DHT22;499;42.648;23.270;2022-12-11T15:48:45;4.50;99.90
1021;DHT22;499;42.648;23.270;2022-12-11T15:51:13;4.50;99.90
1021;DHT22;499;42.648;23.270;2022-12-11T15:53:40;4.20;99.90
1021;DHT22;499;42.648;23.270;2022-12-11T15:56:08;4.10;99.90
1021;DHT22;499;42.648;23.270;2022-12-11T15:58:40;4.00;99.90
1021;DHT22;499;42.648;23.270;2022-12-11T16:01:08;3.80;99.90
1021;DHT22;499;42.648;23.270;2022-12-11T16:03:35;3.70;99.90
1021;DHT22;499;42.648;23.270;2022-12-11T16:06:03;3.70;99.90
1021;DHT22;499;42.648;23.270;2022-12-11T16:08:30;3.60;99.90
1021;DHT22;499;42.648;23.270;2022-12-11T16:10:57;3.60;99.90
1021;DHT22;499;42.648;23.270;2022-12-11T16:13:24;3.60;99.90
1021;DHT22;499;42.648;23.270;2022-12-11T16:15:53;3.40;99.90
1021;DHT22;499;42.648;23.270;2022-12-11T16:18:21;3.70;99.90
1021;DHT22;499;42.648;23.270;2022-12-11T16:20:50;3.70;99.90
1021;DHT22;499;42.648;23.270;2022-12-11T16:23:18;3.30;99.90
1021;DHT22;499;42.648;23.270;2022-12-11T16:25:45;3.90;99.90
1021;DHT22;499;42.648;23.270;2022-12-11T16:28:14;3.90;99.90
1021;DHT22;499;42.648;23.270;2022-12-11T16:30:41;3.80;99.90